Time;durP1;ratioP1;P1;durP2;ratioP2;P2;SDS_P1;SDS_P2;PMS_P1;PMS_P2;Temp;Humidity;BMP_temperature;BMP_pressure;BME280_temperature;BME280_humidity;BME280_pressure;Samples;Min_cycle;Max_cycle;Signal;HPM_P1;HPM_P2
2022/05/07 00:01:26;;;;;;;6.70;4.30;;;;;;;;;;6233646;22;20473;-52
2022/05/07 00:03:52;;;;;;;9.90;4.30;;;;;;;;;;6241474;22;20470;-54
2022/05/07 00:06:18;;;;;;;6.60;4.50;;;;;;;;;;6236493;22;20428;-52
2022/05/07 00:08:44;;;;;;;4.90;3.97;;;;;;;;;;6241993;22;20193;-53
2022/05/07 00:11:11;;;;;;;4.10;3.70;;;;;;;;;;6226571;22;20717;-56
2022/05/07 00:13:37;;;;;;;7.20;3.87;;;;;;;;;;6242047;22;20387;-52
2022/05/07 00:18:48;;;;;;;6.87;4.60;;;;;;;;;;6245361;23;20386;-50
2022/05/07 00:21:14;;;;;;;5.80;4.50;;;;;;;;;;6241209;22;20374;-52
2022/05/07 00:23:40;;;;;;;5.50;4.23;;;;;;;;;;6245514;22;20444;-51
2022/05/07 00:26:06;;;;;;;5.10;4.40;;;;;;;;;;6238533;22;20366;-52
2022/05/07 00:28:32;;;;;;;6.90;4.70;;;;;;;;;;6246743;22;20405;-51
2022/05/07 00:31:01;;;;;;;4.40;4.00;;;;;;;;;;6246279;23;20372;-51
2022/05/07 00:33:28;;;;;;;11.27;5.20;;;;;;;;;;6246572;22;20397;-51
2022/05/07 00:36:00;;;;;;;27.60;5.80;;;;;;;;;;6245518;22;20380;-52
2022/05/07 00:38:27;;;;;;;8.80;4.93;;;;;;;;;;6245004;22;20460;-52
2022/05/07 00:40:53;;;;;;;17.70;6.50;;;;;;;;;;6236588;22;20381;-50
2022/05/07 00:43:20;;;;;;;10.43;4.10;;;;;;;;;;6244093;23;20425;-52
2022/05/07 00:45:46;;;;;;;7.80;4.30;;;;;;;;;;6241529;22;20485;-50
2022/05/07 00:48:12;;;;;;;8.30;4.43;;;;;;;;;;6246116;22;20362;-53
2022/05/07 00:53:45;;;;;;;6.37;4.30;;;;;;;;;;6211989;23;20387;-54
2022/05/07 00:56:11;;;;;;;5.40;4.57;;;;;;;;;;6211263;23;20379;-51
2022/05/07 00:58:38;;;;;;;5.07;4.57;;;;;;;;;;6226591;22;20374;-52
2022/05/07 01:01:04;;;;;;;4.43;4.03;;;;;;;;;;6234028;22;20374;-51
2022/05/07 01:03:30;;;;;;;5.27;3.83;;;;;;;;;;6244359;22;20426;-51
2022/05/07 01:06:13;;;;;;;7.80;3.93;;;;;;;;;;6237520;22;20370;-52
2022/05/07 01:08:43;;;;;;;8.57;3.97;;;;;;;;;;6244813;22;20373;-53
2022/05/07 01:11:09;;;;;;;4.40;3.70;;;;;;;;;;6238946;22;20824;-53
2022/05/07 01:13:35;;;;;;;5.20;4.20;;;;;;;;;;6237340;23;20385;-51
2022/05/07 01:16:02;;;;;;;3.67;3.30;;;;;;;;;;6240996;22;20365;-51
2022/05/07 01:18:43;;;;;;;9.23;4.07;;;;;;;;;;6235141;22;20368;-53
2022/05/07 01:21:12;;;;;;;5.13;3.20;;;;;;;;;;6239295;22;20457;-51
2022/05/07 01:23:38;;;;;;;5.63;4.20;;;;;;;;;;6230991;22;20526;-50
2022/05/07 01:26:04;;;;;;;6.03;3.83;;;;;;;;;;6241845;22;20394;-53
2022/05/07 01:28:41;;;;;;;4.57;4.00;;;;;;;;;;6217770;22;20406;-53
2022/05/07 01:31:13;;;;;;;4.30;3.90;;;;;;;;;;6234840;22;20444;-53
2022/05/07 01:33:39;;;;;;;4.20;3.60;;;;;;;;;;6240004;22;20374;-53
2022/05/07 01:36:11;;;;;;;5.57;4.57;;;;;;;;;;6228942;22;20909;-55
2022/05/07 01:38:46;;;;;;;5.97;3.63;;;;;;;;;;6238970;22;20412;-52
2022/05/07 01:41:15;;;;;;;5.33;4.10;;;;;;;;;;6232816;22;20373;-52
2022/05/07 01:43:55;;;;;;;6.17;4.70;;;;;;;;;;6236067;22;20437;-52
2022/05/07 01:49:30;;;;;;;3.80;3.30;;;;;;;;;;6226388;23;20377;-52
2022/05/07 01:51:58;;;;;;;7.40;5.83;;;;;;;;;;6240594;23;20386;-52
2022/05/07 01:54:24;;;;;;;4.47;3.90;;;;;;;;;;6232858;23;20554;-53
2022/05/07 01:56:52;;;;;;;4.23;3.77;;;;;;;;;;6224142;22;20473;-52
2022/05/07 01:59:18;;;;;;;5.20;3.30;;;;;;;;;;6240456;22;20370;-51
2022/05/07 02:01:43;;;;;;;6.37;4.07;;;;;;;;;;6220537;22;20371;-53
2022/05/07 02:04:10;;;;;;;9.13;4.80;;;;;;;;;;6238737;22;20502;-51
2022/05/07 02:06:37;;;;;;;4.57;3.60;;;;;;;;;;6235372;22;20693;-52
2022/05/07 02:09:03;;;;;;;5.40;4.23;;;;;;;;;;6242982;22;20382;-53
2022/05/07 02:11:29;;;;;;;6.70;4.27;;;;;;;;;;6228290;22;20402;-52
2022/05/07 02:13:59;;;;;;;5.50;4.00;;;;;;;;;;6242440;22;20389;-52
2022/05/07 02:16:25;;;;;;;4.40;3.90;;;;;;;;;;6232578;22;20442;-52
2022/05/07 02:18:52;;;;;;;5.10;4.00;;;;;;;;;;6239586;22;20459;-53
2022/05/07 02:21:23;;;;;;;5.03;3.97;;;;;;;;;;6236119;22;20480;-52
2022/05/07 02:23:50;;;;;;;6.20;3.43;;;;;;;;;;6243592;22;20429;-52
2022/05/07 02:26:16;;;;;;;5.33;3.40;;;;;;;;;;6234324;22;20470;-50
2022/05/07 02:28:49;;;;;;;4.47;3.60;;;;;;;;;;6244151;22;20409;-52
2022/05/07 02:31:15;;;;;;;7.60;4.50;;;;;;;;;;6227397;22;20896;-49
2022/05/07 02:33:41;;;;;;;4.17;3.37;;;;;;;;;;6241209;22;20382;-51
2022/05/07 02:36:13;;;;;;;6.90;4.80;;;;;;;;;;6226984;22;20359;-50
2022/05/07 02:38:40;;;;;;;7.03;4.03;;;;;;;;;;6236125;23;20151;-50
2022/05/07 02:43:51;;;;;;;4.60;3.87;;;;;;;;;;6241447;23;20429;-52
2022/05/07 02:46:20;;;;;;;4.43;3.83;;;;;;;;;;6224727;23;20545;-51
2022/05/07 02:48:49;;;;;;;4.00;3.60;;;;;;;;;;6243705;22;20354;-51
2022/05/07 02:51:17;;;;;;;5.93;3.70;;;;;;;;;;6228965;22;21115;-53
2022/05/07 02:53:43;;;;;;;5.10;3.90;;;;;;;;;;6241638;23;20492;-52
2022/05/07 02:56:09;;;;;;;8.20;3.73;;;;;;;;;;6235978;22;20390;-53
2022/05/07 02:58:35;;;;;;;6.27;4.13;;;;;;;;;;6242918;22;20786;-53
2022/05/07 03:01:04;;;;;;;6.20;4.07;;;;;;;;;;6235126;22;20366;-53
2022/05/07 03:03:33;;;;;;;6.63;4.53;;;;;;;;;;6241674;22;20585;-54
2022/05/07 03:06:00;;;;;;;5.00;3.77;;;;;;;;;;6234579;22;20382;-59
2022/05/07 03:08:28;;;;;;;9.60;5.07;;;;;;;;;;6239243;22;20393;-52
2022/05/07 03:11:18;;;;;;;4.30;3.80;;;;;;;;;;6225909;22;20456;-51
2022/05/07 03:13:47;;;;;;;6.53;4.00;;;;;;;;;;6239801;22;20389;-53
2022/05/07 03:16:13;;;;;;;5.17;3.77;;;;;;;;;;6222274;23;20755;-51
2022/05/07 03:18:39;;;;;;;5.07;4.13;;;;;;;;;;6236852;22;20484;-53
2022/05/07 03:21:05;;;;;;;5.80;4.77;;;;;;;;;;6226058;22;20628;-51
2022/05/07 03:23:31;;;;;;;5.17;4.20;;;;;;;;;;6241175;22;20468;-52
2022/05/07 03:25:59;;;;;;;5.90;4.70;;;;;;;;;;6235257;22;20432;-54
2022/05/07 03:28:31;;;;;;;4.60;3.73;;;;;;;;;;6240322;22;20376;-51
2022/05/07 03:30:59;;;;;;;7.03;4.03;;;;;;;;;;6235803;22;20366;-51
2022/05/07 03:33:25;;;;;;;9.70;5.00;;;;;;;;;;6239626;22;20381;-52
2022/05/07 03:35:52;;;;;;;4.10;3.70;;;;;;;;;;6235343;22;20485;-53
2022/05/07 03:38:18;;;;;;;6.23;3.63;;;;;;;;;;6238456;22;20374;-53
2022/05/07 03:40:55;;;;;;;4.40;3.93;;;;;;;;;;6233906;22;20477;-54
2022/05/07 03:43:24;;;;;;;3.80;3.40;;;;;;;;;;6237008;22;20436;-50
2022/05/07 03:49:12;;;;;;;4.10;3.03;;;;;;;;;;6188949;23;20418;-50
2022/05/07 03:54:23;;;;;;;12.30;5.60;;;;;;;;;;6238003;23;20419;-50
2022/05/07 03:56:49;;;;;;;6.90;4.10;;;;;;;;;;6236782;22;20401;-52
2022/05/07 03:59:15;;;;;;;6.10;4.43;;;;;;;;;;6239084;22;20370;-52
2022/05/07 04:01:42;;;;;;;5.57;4.10;;;;;;;;;;6232616;22;20380;-50
2022/05/07 04:04:08;;;;;;;4.20;3.37;;;;;;;;;;6232806;22;20441;-51
2022/05/07 04:06:34;;;;;;;6.07;4.67;;;;;;;;;;6237888;22;20393;-51
2022/05/07 04:09:01;;;;;;;4.37;3.93;;;;;;;;;;6239085;22;20401;-52
2022/05/07 04:11:27;;;;;;;6.53;4.37;;;;;;;;;;6239071;22;20870;-52
2022/05/07 04:13:52;;;;;;;4.20;3.80;;;;;;;;;;6237525;22;20377;-50
2022/05/07 04:19:22;;;;;;;4.60;4.10;;;;;;;;;;6217366;23;20436;-50
2022/05/07 04:21:48;;;;;;;3.70;3.20;;;;;;;;;;6241509;22;20857;-51
2022/05/07 04:24:14;;;;;;;5.60;4.43;;;;;;;;;;6226931;22;20512;-50
2022/05/07 04:26:40;;;;;;;4.03;3.70;;;;;;;;;;6242127;22;20916;-52
2022/05/07 04:29:06;;;;;;;6.20;4.30;;;;;;;;;;6235758;22;20372;-52
2022/05/07 04:31:32;;;;;;;6.63;3.83;;;;;;;;;;6242943;22;20849;-53
2022/05/07 04:33:58;;;;;;;6.50;4.47;;;;;;;;;;6228426;22;20880;-51
2022/05/07 04:36:25;;;;;;;5.10;3.50;;;;;;;;;;6238544;22;20817;-51
2022/05/07 04:38:50;;;;;;;6.67;4.67;;;;;;;;;;6235419;22;20434;-51
2022/05/07 04:41:16;;;;;;;4.60;3.70;;;;;;;;;;6240524;22;20382;-51
2022/05/07 04:43:42;;;;;;;4.93;4.00;;;;;;;;;;6225290;23;20501;-52
2022/05/07 04:46:08;;;;;;;6.93;4.40;;;;;;;;;;6240360;22;20379;-52
2022/05/07 04:48:38;;;;;;;4.30;3.90;;;;;;;;;;6218640;22;20378;-51
2022/05/07 04:51:07;;;;;;;4.70;3.53;;;;;;;;;;6240284;22;20380;-48
2022/05/07 04:53:33;;;;;;;5.47;3.93;;;;;;;;;;6223610;23;20865;-50
2022/05/07 04:55:59;;;;;;;5.57;4.83;;;;;;;;;;6240506;22;20381;-51
2022/05/07 04:58:25;;;;;;;5.23;4.73;;;;;;;;;;6236096;22;20465;-50
2022/05/07 05:00:52;;;;;;;5.70;3.80;;;;;;;;;;6241666;22;20370;-49
2022/05/07 05:03:26;;;;;;;4.27;3.87;;;;;;;;;;6226843;22;20918;-53
2022/05/07 05:05:52;;;;;;;6.87;4.67;;;;;;;;;;6241822;22;20852;-50
2022/05/07 05:08:18;;;;;;;5.53;3.50;;;;;;;;;;6223388;22;20426;-50
2022/05/07 05:10:45;;;;;;;4.37;3.93;;;;;;;;;;6243110;22;20154;-49
2022/05/07 05:13:11;;;;;;;5.27;4.77;;;;;;;;;;6235277;22;20519;-52
2022/05/07 05:15:38;;;;;;;10.90;4.40;;;;;;;;;;6238234;23;20387;-53
2022/05/07 05:18:04;;;;;;;7.03;3.93;;;;;;;;;;6224743;22;20769;-51
2022/05/07 05:20:30;;;;;;;4.73;3.87;;;;;;;;;;6240282;22;20449;-52
2022/05/07 05:22:56;;;;;;;6.63;4.27;;;;;;;;;;6220690;22;20378;-52
2022/05/07 05:25:22;;;;;;;6.53;4.50;;;;;;;;;;6240169;22;20475;-53
2022/05/07 05:27:48;;;;;;;8.03;4.70;;;;;;;;;;6226675;22;20379;-53
2022/05/07 05:30:14;;;;;;;5.87;4.60;;;;;;;;;;6241683;22;20411;-51
2022/05/07 05:32:40;;;;;;;5.20;4.70;;;;;;;;;;6236769;22;20366;-51
2022/05/07 05:35:07;;;;;;;6.60;5.30;;;;;;;;;;6241735;22;20716;-52
2022/05/07 05:37:33;;;;;;;5.97;4.63;;;;;;;;;;6228514;22;20386;-51
2022/05/07 05:39:59;;;;;;;5.20;4.70;;;;;;;;;;6244084;22;20861;-52
2022/05/07 05:42:25;;;;;;;6.13;5.27;;;;;;;;;;6225206;22;20425;-50
2022/05/07 05:44:51;;;;;;;6.83;6.10;;;;;;;;;;6241698;22;20426;-51
2022/05/07 05:47:17;;;;;;;11.97;6.10;;;;;;;;;;6223795;22;20382;-52
2022/05/07 05:49:43;;;;;;;9.20;6.47;;;;;;;;;;6243041;22;20379;-51
2022/05/07 05:52:09;;;;;;;7.60;6.60;;;;;;;;;;6226675;22;20453;-51
2022/05/07 05:54:35;;;;;;;12.00;6.60;;;;;;;;;;6240738;22;20143;-53
2022/05/07 05:57:01;;;;;;;7.30;5.80;;;;;;;;;;6232835;22;20373;-52
2022/05/07 05:59:27;;;;;;;7.97;7.17;;;;;;;;;;6241771;22;20374;-53
2022/05/07 06:01:53;;;;;;;6.70;5.80;;;;;;;;;;6234137;22;20428;-51
2022/05/07 06:04:19;;;;;;;8.67;7.57;;;;;;;;;;6240031;22;20429;-54
2022/05/07 06:06:45;;;;;;;6.10;5.50;;;;;;;;;;6225063;22;20374;-51
2022/05/07 06:09:11;;;;;;;8.13;6.63;;;;;;;;;;6239453;22;20497;-53
2022/05/07 06:11:38;;;;;;;7.40;6.63;;;;;;;;;;6228071;22;20613;-51
2022/05/07 06:14:04;;;;;;;10.13;6.50;;;;;;;;;;6242471;22;20417;-53
2022/05/07 06:16:30;;;;;;;9.90;7.40;;;;;;;;;;6237031;22;20363;-50
2022/05/07 06:18:56;;;;;;;7.60;6.60;;;;;;;;;;6240094;22;20638;-50
2022/05/07 06:21:22;;;;;;;7.17;6.47;;;;;;;;;;6233065;23;20389;-53
2022/05/07 06:23:48;;;;;;;10.67;6.80;;;;;;;;;;6239667;22;20421;-51
2022/05/07 06:29:14;;;;;;;7.00;5.40;;;;;;;;;;6241268;23;20517;-50
2022/05/07 06:31:41;;;;;;;8.33;7.53;;;;;;;;;;6225189;22;20778;-52
2022/05/07 06:34:07;;;;;;;7.10;6.30;;;;;;;;;;6239199;22;20252;-51
2022/05/07 06:36:35;;;;;;;8.03;6.53;;;;;;;;;;6226964;22;21110;-51
2022/05/07 06:39:01;;;;;;;7.43;6.23;;;;;;;;;;6242931;22;20370;-51
2022/05/07 06:41:27;;;;;;;11.27;7.40;;;;;;;;;;6235001;22;20389;-52
2022/05/07 06:43:53;;;;;;;8.67;7.30;;;;;;;;;;6238445;22;20182;-52
2022/05/07 06:46:19;;;;;;;13.03;6.97;;;;;;;;;;6228528;22;20223;-52
2022/05/07 06:48:45;;;;;;;7.40;6.10;;;;;;;;;;6234972;22;20432;-51
2022/05/07 06:51:11;;;;;;;8.20;6.83;;;;;;;;;;6231307;22;21055;-52
2022/05/07 06:53:37;;;;;;;8.50;6.60;;;;;;;;;;6236962;22;20381;-50
2022/05/07 06:56:21;;;;;;;7.70;6.63;;;;;;;;;;6235277;22;20578;-50
2022/05/07 06:58:53;;;;;;;7.83;6.77;;;;;;;;;;6233245;23;20381;-52
2022/05/07 07:01:19;;;;;;;7.87;7.07;;;;;;;;;;6238624;22;20378;-51
2022/05/07 07:03:45;;;;;;;8.73;7.17;;;;;;;;;;6222244;22;20195;-51
2022/05/07 07:06:11;;;;;;;13.80;8.97;;;;;;;;;;6240678;22;20421;-52
2022/05/07 07:08:37;;;;;;;10.17;7.80;;;;;;;;;;6224985;22;20871;-51
2022/05/07 07:11:03;;;;;;;12.40;8.97;;;;;;;;;;6239311;22;20375;-50
2022/05/07 07:13:29;;;;;;;10.90;9.80;;;;;;;;;;6230512;23;20382;-52
2022/05/07 07:15:55;;;;;;;13.17;10.07;;;;;;;;;;6238926;23;20710;-49
2022/05/07 07:18:21;;;;;;;11.17;10.07;;;;;;;;;;6222998;22;20385;-51
2022/05/07 07:20:59;;;;;;;13.27;9.77;;;;;;;;;;6240047;22;20375;-53
2022/05/07 07:23:35;;;;;;;13.17;11.13;;;;;;;;;;6233466;23;20426;-52
2022/05/07 07:26:02;;;;;;;13.93;10.63;;;;;;;;;;6241329;22;20378;-53
2022/05/07 07:28:41;;;;;;;12.87;11.57;;;;;;;;;;6218016;22;20375;-54
2022/05/07 07:31:10;;;;;;;16.13;11.10;;;;;;;;;;6236427;22;20381;-52
2022/05/07 07:33:50;;;;;;;15.27;11.70;;;;;;;;;;6243193;22;20371;-52
2022/05/07 07:36:20;;;;;;;13.83;11.43;;;;;;;;;;6235418;22;20425;-52
2022/05/07 07:38:46;;;;;;;12.70;11.13;;;;;;;;;;6239666;22;20749;-52
2022/05/07 07:41:22;;;;;;;12.77;11.47;;;;;;;;;;6229121;22;20390;-52
2022/05/07 07:43:51;;;;;;;12.67;11.00;;;;;;;;;;6238333;22;20457;-51
2022/05/07 07:49:03;;;;;;;10.50;7.83;;;;;;;;;;6241286;23;20397;-50
2022/05/07 07:51:29;;;;;;;10.13;7.10;;;;;;;;;;6237689;23;20389;-52
2022/05/07 07:53:56;;;;;;;12.53;10.00;;;;;;;;;;6241482;22;20378;-51
2022/05/07 07:56:34;;;;;;;13.03;9.47;;;;;;;;;;6235567;22;20884;-51
2022/05/07 07:59:00;;;;;;;9.30;8.40;;;;;;;;;;6243076;22;20393;-51
2022/05/07 08:01:26;;;;;;;12.77;9.67;;;;;;;;;;6223748;22;20374;-50
2022/05/07 08:03:52;;;;;;;8.40;7.57;;;;;;;;;;6240442;22;20545;-51
2022/05/07 08:06:18;;;;;;;12.30;8.70;;;;;;;;;;6235119;22;20512;-52
2022/05/07 08:11:41;;;;;;;10.20;7.90;;;;;;;;;;6227148;23;20177;-51
2022/05/07 08:14:13;;;;;;;12.30;8.93;;;;;;;;;;6240626;22;20373;-52
2022/05/07 08:16:38;;;;;;;12.60;8.43;;;;;;;;;;6237077;22;20477;-51
2022/05/07 08:19:06;;;;;;;9.00;7.80;;;;;;;;;;6239360;22;20865;-52
2022/05/07 08:21:32;;;;;;;10.80;8.37;;;;;;;;;;6222208;22;20369;-51
2022/05/07 08:23:57;;;;;;;10.67;8.37;;;;;;;;;;6241523;22;20433;-51
2022/05/07 08:26:24;;;;;;;11.20;9.27;;;;;;;;;;6237313;22;20848;-53
2022/05/07 08:28:53;;;;;;;10.10;9.10;;;;;;;;;;6241399;22;20158;-52
2022/05/07 08:31:25;;;;;;;9.80;8.60;;;;;;;;;;6228640;22;20462;-51
2022/05/07 08:33:51;;;;;;;12.20;9.80;;;;;;;;;;6243191;22;20378;-52
2022/05/07 08:36:17;;;;;;;14.30;9.50;;;;;;;;;;6236164;22;20457;-52
2022/05/07 08:38:43;;;;;;;11.40;9.27;;;;;;;;;;6229950;22;20378;-52
2022/05/07 08:41:10;;;;;;;14.57;11.53;;;;;;;;;;6244685;22;20401;-52
2022/05/07 08:43:37;;;;;;;11.90;10.43;;;;;;;;;;6227631;22;20747;-52
2022/05/07 08:46:04;;;;;;;14.70;10.40;;;;;;;;;;6243675;22;20891;-51
2022/05/07 08:48:30;;;;;;;12.67;9.73;;;;;;;;;;6235476;23;20378;-52
2022/05/07 08:50:56;;;;;;;11.33;10.23;;;;;;;;;;6243153;22;20374;-52
2022/05/07 08:53:22;;;;;;;12.20;11.00;;;;;;;;;;6226810;23;20947;-52
2022/05/07 08:55:54;;;;;;;12.10;10.50;;;;;;;;;;6243246;22;20367;-52
2022/05/07 08:58:21;;;;;;;13.53;9.90;;;;;;;;;;6233668;23;20881;-52
2022/05/07 09:00:47;;;;;;;15.23;10.83;;;;;;;;;;6243658;22;20370;-52
2022/05/07 09:03:34;;;;;;;10.93;8.97;;;;;;;;;;6238980;22;20376;-52
2022/05/07 09:06:14;;;;;;;13.47;9.30;;;;;;;;;;6239042;22;20864;-53
2022/05/07 09:08:40;;;;;;;12.43;11.03;;;;;;;;;;6239186;22;20392;-53
2022/05/07 09:11:06;;;;;;;13.30;10.80;;;;;;;;;;6238188;22;20371;-52
2022/05/07 09:13:35;;;;;;;11.47;10.30;;;;;;;;;;6241194;22;20378;-51
2022/05/07 09:16:02;;;;;;;10.40;8.47;;;;;;;;;;6232120;22;20378;-52
2022/05/07 09:18:28;;;;;;;11.10;9.13;;;;;;;;;;6242663;22;20379;-51
2022/05/07 09:21:16;;;;;;;10.17;8.70;;;;;;;;;;6237707;22;20386;-51
2022/05/07 09:23:46;;;;;;;8.97;7.47;;;;;;;;;;6239247;22;20206;-53
2022/05/07 09:26:23;;;;;;;8.63;7.73;;;;;;;;;;6234395;22;20385;-54
2022/05/07 09:28:49;;;;;;;7.80;7.00;;;;;;;;;;6240037;22;20658;-54
2022/05/07 09:31:22;;;;;;;10.73;7.10;;;;;;;;;;6240411;22;20366;-53
2022/05/07 09:36:52;;;;;;;6.47;5.80;;;;;;;;;;6233763;23;20498;-53
2022/05/07 09:39:18;;;;;;;5.90;4.53;;;;;;;;;;6235630;22;20382;-52
2022/05/07 09:41:44;;;;;;;6.43;3.73;;;;;;;;;;6242087;22;20762;-53
2022/05/07 09:44:13;;;;;;;7.83;4.40;;;;;;;;;;6225651;22;20186;-54
2022/05/07 09:46:40;;;;;;;5.67;4.43;;;;;;;;;;6241270;22;20381;-54
2022/05/07 09:49:06;;;;;;;5.70;4.30;;;;;;;;;;6225973;22;20803;-50
2022/05/07 09:51:32;;;;;;;8.93;4.80;;;;;;;;;;6242508;22;20363;-53
2022/05/07 09:59:27;;;;;;;4.00;3.43;;;;;;;;;;6225773;23;20393;-53
2022/05/07 10:01:57;;;;;;;4.07;3.20;;;;;;;;;;6240619;22;20359;-53
2022/05/07 10:04:42;;;;;;;6.20;3.80;;;;;;;;;;6225787;22;20484;-53
2022/05/07 10:07:17;;;;;;;5.17;3.80;;;;;;;;;;6243466;22;20379;-53
2022/05/07 10:09:44;;;;;;;5.53;3.60;;;;;;;;;;6226255;22;20887;-54
2022/05/07 10:12:11;;;;;;;2.63;2.43;;;;;;;;;;6238415;22;20354;-53
2022/05/07 10:14:37;;;;;;;3.30;3.00;;;;;;;;;;6233862;22;21066;-53
2022/05/07 10:17:11;;;;;;;2.93;2.60;;;;;;;;;;6233658;22;20363;-55
2022/05/07 10:19:39;;;;;;;5.30;3.80;;;;;;;;;;6236793;22;21031;-53
2022/05/07 10:22:17;;;;;;;3.10;2.80;;;;;;;;;;6232169;22;20374;-54
2022/05/07 10:24:43;;;;;;;4.00;2.97;;;;;;;;;;6237817;22;20753;-53
2022/05/07 10:27:19;;;;;;;4.13;3.43;;;;;;;;;;6239898;22;20368;-54
2022/05/07 10:29:47;;;;;;;3.00;2.50;;;;;;;;;;6236301;22;20362;-52
2022/05/07 10:32:18;;;;;;;6.90;2.90;;;;;;;;;;6235404;22;20378;-54
2022/05/07 10:34:52;;;;;;;4.40;3.50;;;;;;;;;;6236864;22;20868;-53
2022/05/07 10:37:18;;;;;;;5.57;3.93;;;;;;;;;;6240850;22;20398;-52
2022/05/07 10:40:20;;;;;;;4.53;3.90;;;;;;;;;;6240822;22;20405;-54
2022/05/07 10:42:50;;;;;;;7.63;3.63;;;;;;;;;;6235766;22;20448;-54
2022/05/07 10:45:22;;;;;;;4.37;3.87;;;;;;;;;;6224410;22;20438;-52
2022/05/07 10:47:55;;;;;;;3.40;3.10;;;;;;;;;;6242499;22;20378;-52
2022/05/07 10:50:24;;;;;;;4.20;3.37;;;;;;;;;;6235520;22;20508;-53
2022/05/07 10:52:56;;;;;;;6.10;3.70;;;;;;;;;;6242045;22;20705;-53
2022/05/07 10:55:26;;;;;;;5.80;3.97;;;;;;;;;;6228245;22;20386;-52
2022/05/07 10:57:52;;;;;;;6.03;4.00;;;;;;;;;;6242357;22;20759;-54
2022/05/07 11:00:24;;;;;;;5.73;4.30;;;;;;;;;;6227816;22;20477;-54
2022/05/07 11:02:55;;;;;;;5.10;4.60;;;;;;;;;;6242545;22;20370;-54
2022/05/07 11:05:31;;;;;;;5.90;4.30;;;;;;;;;;6225839;22;20438;-52
2022/05/07 11:07:58;;;;;;;4.93;3.93;;;;;;;;;;6241816;22;20737;-53
2022/05/07 11:10:24;;;;;;;3.80;3.50;;;;;;;;;;6237410;22;20528;-53
2022/05/07 11:12:50;;;;;;;4.40;4.00;;;;;;;;;;6241861;22;20433;-53
2022/05/07 11:15:32;;;;;;;6.60;4.60;;;;;;;;;;6239108;22;20374;-54
2022/05/07 11:18:01;;;;;;;5.17;3.70;;;;;;;;;;6239796;22;20152;-51
2022/05/07 11:20:28;;;;;;;5.17;3.83;;;;;;;;;;6241794;22;20366;-51
2022/05/07 11:23:00;;;;;;;3.43;3.13;;;;;;;;;;6232236;22;20453;-52
2022/05/07 11:25:27;;;;;;;4.37;3.30;;;;;;;;;;6239896;22;20935;-53
2022/05/07 11:27:53;;;;;;;3.90;3.50;;;;;;;;;;6229280;22;20932;-51
2022/05/07 11:30:19;;;;;;;4.40;3.27;;;;;;;;;;6241627;22;20427;-53
2022/05/07 11:32:45;;;;;;;3.53;2.90;;;;;;;;;;6227041;23;20823;-53
2022/05/07 11:35:11;;;;;;;4.83;3.10;;;;;;;;;;6241391;22;20370;-52
2022/05/07 11:37:38;;;;;;;5.90;3.97;;;;;;;;;;6235674;22;20222;-54
2022/05/07 11:40:04;;;;;;;4.30;3.73;;;;;;;;;;6242413;22;20366;-54
2022/05/07 11:42:34;;;;;;;4.17;3.10;;;;;;;;;;6231753;22;20397;-53
2022/05/07 11:47:57;;;;;;;3.97;3.10;;;;;;;;;;6227760;23;20381;-54
2022/05/07 11:50:24;;;;;;;3.30;2.53;;;;;;;;;;6241317;22;20366;-53
2022/05/07 11:52:51;;;;;;;4.20;3.73;;;;;;;;;;6234598;22;20766;-53
2022/05/07 11:55:17;;;;;;;4.50;3.17;;;;;;;;;;6241465;22;20739;-54
2022/05/07 11:57:46;;;;;;;3.83;3.03;;;;;;;;;;6227909;22;20371;-53
2022/05/07 12:00:13;;;;;;;2.60;2.40;;;;;;;;;;6241676;22;20953;-53
2022/05/07 12:02:39;;;;;;;3.07;2.60;;;;;;;;;;6232660;22;20394;-52
2022/05/07 12:05:05;;;;;;;4.40;3.30;;;;;;;;;;6241199;22;20429;-53
2022/05/07 12:07:41;;;;;;;3.70;2.80;;;;;;;;;;6225892;22;20381;-52
2022/05/07 12:10:07;;;;;;;4.37;3.07;;;;;;;;;;6240803;22;20386;-52
2022/05/07 12:12:33;;;;;;;3.73;3.40;;;;;;;;;;6233491;22;20458;-52
2022/05/07 12:14:59;;;;;;;7.73;3.77;;;;;;;;;;6243158;22;20378;-55
2022/05/07 12:20:10;;;;;;;7.10;3.13;;;;;;;;;;6241928;23;20398;-52
2022/05/07 12:30:50;;;;;;;5.00;3.30;;;;;;;;;;6240014;23;21075;-52
2022/05/07 12:33:16;;;;;;;3.57;3.27;;;;;;;;;;6238689;22;20473;-53
2022/05/07 12:35:42;;;;;;;5.67;3.23;;;;;;;;;;6239215;22;20396;-53
2022/05/07 12:38:08;;;;;;;3.80;3.50;;;;;;;;;;6240541;22;20378;-53
2022/05/07 12:40:34;;;;;;;7.40;3.23;;;;;;;;;;6239239;22;20918;-54
2022/05/07 12:43:00;;;;;;;3.30;2.97;;;;;;;;;;6233455;22;20374;-51
2022/05/07 12:45:26;;;;;;;4.20;2.73;;;;;;;;;;6240506;23;20444;-52
2022/05/07 12:47:53;;;;;;;7.57;3.33;;;;;;;;;;6238642;22;20385;-52
2022/05/07 12:53:24;;;;;;;3.17;2.80;;;;;;;;;;6217967;22;20515;-54
2022/05/07 12:55:50;;;;;;;9.03;2.97;;;;;;;;;;6243237;22;20755;-54
2022/05/07 12:58:16;;;;;;;4.80;2.67;;;;;;;;;;6228917;23;20165;-53
2022/05/07 13:00:42;;;;;;;4.30;2.63;;;;;;;;;;6243514;22;20437;-52
2022/05/07 13:03:08;;;;;;;2.40;2.03;;;;;;;;;;6236535;22;20147;-53
2022/05/07 13:05:34;;;;;;;3.30;2.30;;;;;;;;;;6242890;22;20430;-54
2022/05/07 13:08:00;;;;;;;3.50;2.20;;;;;;;;;;6236377;22;20381;-53
2022/05/07 13:10:27;;;;;;;2.93;2.67;;;;;;;;;;6243751;22;20378;-52
2022/05/07 13:12:53;;;;;;;4.57;2.70;;;;;;;;;;6229722;22;20418;-52
2022/05/07 13:15:19;;;;;;;3.80;2.57;;;;;;;;;;6240452;22;20720;-52
2022/05/07 13:17:45;;;;;;;4.60;2.60;;;;;;;;;;6237681;22;20484;-52
2022/05/07 13:20:11;;;;;;;4.40;2.53;;;;;;;;;;6242885;22;20370;-53
2022/05/07 13:22:38;;;;;;;5.20;2.70;;;;;;;;;;6218497;23;20496;-53
2022/05/07 13:25:04;;;;;;;3.20;2.43;;;;;;;;;;6240533;22;20195;-54
2022/05/07 13:27:31;;;;;;;3.93;3.00;;;;;;;;;;6237063;22;20672;-54
2022/05/07 13:29:57;;;;;;;2.73;2.30;;;;;;;;;;6236046;22;20846;-52
2022/05/07 13:32:23;;;;;;;3.77;2.90;;;;;;;;;;6240667;22;20750;-53
2022/05/07 13:34:49;;;;;;;12.33;3.20;;;;;;;;;;6237056;22;20377;-53
2022/05/07 13:37:16;;;;;;;3.97;2.80;;;;;;;;;;6242284;22;20383;-53
2022/05/07 13:39:42;;;;;;;4.17;2.70;;;;;;;;;;6237392;22;20385;-54
2022/05/07 13:42:08;;;;;;;3.50;2.60;;;;;;;;;;6241088;23;20390;-51
2022/05/07 13:44:37;;;;;;;4.03;2.97;;;;;;;;;;6226070;22;20429;-52
2022/05/07 13:47:03;;;;;;;3.80;2.50;;;;;;;;;;6242964;22;20366;-52
2022/05/07 13:49:29;;;;;;;3.50;2.73;;;;;;;;;;6235654;22;20366;-53
2022/05/07 13:51:58;;;;;;;6.77;2.63;;;;;;;;;;6242476;22;20747;-52
2022/05/07 13:54:24;;;;;;;2.67;2.40;;;;;;;;;;6220314;22;20409;-53
2022/05/07 13:56:50;;;;;;;3.83;3.07;;;;;;;;;;6241681;22;20378;-54
2022/05/07 13:59:16;;;;;;;6.30;2.13;;;;;;;;;;6226238;23;20159;-53
2022/05/07 14:01:42;;;;;;;3.07;2.10;;;;;;;;;;6243218;22;20151;-53
2022/05/07 14:04:08;;;;;;;3.20;2.87;;;;;;;;;;6226742;22;20741;-53
2022/05/07 14:06:34;;;;;;;3.00;2.77;;;;;;;;;;6241779;22;20334;-52
2022/05/07 14:09:00;;;;;;;3.93;2.57;;;;;;;;;;6237098;22;20447;-53
2022/05/07 14:11:26;;;;;;;3.23;2.67;;;;;;;;;;6222843;22;20155;-51
2022/05/07 14:13:52;;;;;;;4.30;2.77;;;;;;;;;;6237948;23;20354;-52
2022/05/07 14:16:39;;;;;;;4.40;3.23;;;;;;;;;;6212748;22;20150;-52
2022/05/07 14:19:08;;;;;;;3.40;2.77;;;;;;;;;;6240024;22;20378;-52
2022/05/07 14:21:38;;;;;;;3.00;2.70;;;;;;;;;;6235561;22;20990;-53
2022/05/07 14:24:05;;;;;;;3.03;2.63;;;;;;;;;;6243280;22;20183;-54
2022/05/07 14:26:35;;;;;;;6.10;3.20;;;;;;;;;;6219230;22;20764;-52
2022/05/07 14:29:02;;;;;;;3.33;2.83;;;;;;;;;;6241652;23;20370;-53
2022/05/07 14:31:29;;;;;;;5.27;3.77;;;;;;;;;;6228717;22;20881;-53
2022/05/07 14:33:54;;;;;;;4.43;3.30;;;;;;;;;;6238205;22;20397;-53
2022/05/07 14:36:25;;;;;;;5.53;2.60;;;;;;;;;;6230674;22;20393;-54
2022/05/07 14:38:52;;;;;;;3.50;3.20;;;;;;;;;;6232440;22;20421;-54
2022/05/07 14:41:18;;;;;;;3.80;3.30;;;;;;;;;;6241994;22;20385;-54
2022/05/07 14:43:45;;;;;;;4.43;3.33;;;;;;;;;;6234374;22;20488;-53
2022/05/07 14:46:11;;;;;;;6.50;4.10;;;;;;;;;;6240899;22;20386;-53
2022/05/07 14:48:37;;;;;;;4.27;3.87;;;;;;;;;;6231891;22;20370;-59
2022/05/07 14:51:03;;;;;;;3.40;3.10;;;;;;;;;;6241458;22;20359;-53
2022/05/07 14:53:29;;;;;;;3.73;3.43;;;;;;;;;;6227602;22;20362;-54
2022/05/07 14:55:55;;;;;;;5.43;3.90;;;;;;;;;;6240430;22;20392;-55
2022/05/07 15:01:25;;;;;;;6.73;3.80;;;;;;;;;;6215394;23;20324;-54
2022/05/07 15:03:52;;;;;;;5.67;3.70;;;;;;;;;;6241375;23;20442;-54
2022/05/07 15:06:18;;;;;;;4.50;3.53;;;;;;;;;;6226497;23;20390;-53
2022/05/07 15:11:29;;;;;;;5.83;3.87;;;;;;;;;;6233998;23;20712;-53
2022/05/07 15:13:55;;;;;;;5.70;3.90;;;;;;;;;;6242255;22;20398;-53
2022/05/07 15:16:26;;;;;;;6.13;4.43;;;;;;;;;;6232888;23;20386;-53
2022/05/07 15:18:52;;;;;;;6.33;4.03;;;;;;;;;;6241001;22;20850;-53
2022/05/07 15:21:18;;;;;;;6.90;4.63;;;;;;;;;;6228629;22;20477;-54
2022/05/07 15:23:44;;;;;;;4.33;3.93;;;;;;;;;;6239617;22;20480;-53
2022/05/07 15:26:10;;;;;;;4.43;4.03;;;;;;;;;;6223426;22;20703;-54
2022/05/07 15:28:38;;;;;;;5.83;5.23;;;;;;;;;;6240654;23;20394;-52
2022/05/07 15:31:09;;;;;;;7.77;4.43;;;;;;;;;;6214258;23;20387;-53
2022/05/07 15:39:04;;;;;;;5.47;4.20;;;;;;;;;;6238764;23;20508;-53
2022/05/07 15:41:30;;;;;;;4.97;4.47;;;;;;;;;;6227461;22;20433;-54
2022/05/07 15:43:58;;;;;;;5.70;4.20;;;;;;;;;;6240552;22;20422;-53
2022/05/07 15:46:27;;;;;;;4.50;4.10;;;;;;;;;;6225819;22;20382;-54
2022/05/07 15:48:53;;;;;;;4.20;3.80;;;;;;;;;;6242557;22;20884;-54
2022/05/07 15:51:20;;;;;;;5.03;4.53;;;;;;;;;;6226823;23;20386;-53